ICE418 BIKF-EIDW
Flight info
| Callsign | ICE418 |
|---|---|
| Flight time | 1h 59m |
| Altitude | 35000 |
| Route | RIMUM1A RIMUM DCT RUMUX DCT RAPAX DCT ETILO/N0453F350 DCT EVNAL DCT TUXOS DCT BELZU DCT NUMPI/N0411F240 P620 NIMAT NIMAT4L |
| Aircraft | B38M/M-SDE1FGHILORVWXY/HB1 |
Departure
| Time | 2026-05-06 18:28 |
|---|---|
| Airport | Keflavik International Airport (BIKF) |
Arrival
| Time | 2026-05-06 20:28 |
|---|---|
| Airport | Dublin Airport (EIDW) |
| Time | Latitude | Longitude | Altitude | Speed | Heading |
|---|---|---|---|---|---|
| 2026-05-06 17:37 | 63.99324 | -22.62192 | 164 ft | 0 kts | 267° |
| 2026-05-06 18:07 | 63.99324 | -22.62183 | 164 ft | 2 kts | 267° |
| 2026-05-06 18:08 | 63.99325 | -22.62146 | 164 ft | 2 kts | 267° |
| 2026-05-06 18:08 | 63.99325 | -22.62109 | 165 ft | 2 kts | 267° |
| 2026-05-06 18:08 | 63.99326 | -22.62072 | 165 ft | 2 kts | 260° |
| 2026-05-06 18:08 | 63.99334 | -22.62040 | 165 ft | 2 kts | 219° |
| 2026-05-06 18:09 | 63.99346 | -22.62016 | 166 ft | 2 kts | 221° |
| 2026-05-06 18:09 | 63.99354 | -22.62006 | 166 ft | 0 kts | 178° |
| 2026-05-06 18:15 | 63.99343 | -22.62004 | 166 ft | 6 kts | 175° |
| 2026-05-06 18:15 | 63.99273 | -22.61989 | 165 ft | 13 kts | 176° |
| 2026-05-06 18:15 | 63.99178 | -22.61932 | 165 ft | 13 kts | 117° |
| 2026-05-06 18:15 | 63.99173 | -22.61751 | 167 ft | 11 kts | 92° |
| 2026-05-06 18:16 | 63.99171 | -22.61576 | 168 ft | 11 kts | 91° |
| 2026-05-06 18:16 | 63.99172 | -22.61408 | 169 ft | 11 kts | 89° |
| 2026-05-06 18:16 | 63.99173 | -22.61233 | 171 ft | 11 kts | 90° |
| 2026-05-06 18:16 | 63.99173 | -22.61045 | 172 ft | 12 kts | 90° |
| 2026-05-06 18:17 | 63.99173 | -22.60881 | 172 ft | 0 kts | 89° |
| 2026-05-06 18:19 | 63.99173 | -22.60860 | 172 ft | 4 kts | 89° |
| 2026-05-06 18:20 | 63.99173 | -22.60748 | 172 ft | 10 kts | 90° |
| 2026-05-06 18:20 | 63.99172 | -22.60532 | 173 ft | 17 kts | 90° |
| 2026-05-06 18:20 | 63.99170 | -22.60502 | 174 ft | 1 kts | 126° |
| 2026-05-06 18:20 | 63.99165 | -22.60504 | 174 ft | 1 kts | 189° |
| 2026-05-06 18:21 | 63.99157 | -22.60519 | 174 ft | 1 kts | 235° |
| 2026-05-06 18:21 | 63.99159 | -22.60596 | 173 ft | 9 kts | 288° |
| 2026-05-06 18:21 | 63.99173 | -22.60813 | 172 ft | 19 kts | 270° |
| 2026-05-06 18:21 | 63.99173 | -22.60874 | 172 ft | 0 kts | 269° |
| 2026-05-06 18:22 | 63.99151 | -22.60944 | 172 ft | 1 kts | 207° |
| 2026-05-06 18:23 | 63.99095 | -22.60942 | 171 ft | 17 kts | 179° |
| 2026-05-06 18:23 | 63.98925 | -22.60945 | 170 ft | 24 kts | 179° |
| 2026-05-06 18:23 | 63.98787 | -22.60946 | 168 ft | 21 kts | 179° |
| 2026-05-06 18:23 | 63.98661 | -22.60942 | 166 ft | 8 kts | 179° |
| 2026-05-06 18:24 | 63.98590 | -22.60940 | 165 ft | 12 kts | 179° |
| 2026-05-06 18:24 | 63.98499 | -22.60939 | 164 ft | 14 kts | 180° |
| 2026-05-06 18:24 | 63.98394 | -22.60938 | 164 ft | 16 kts | 179° |
| 2026-05-06 18:24 | 63.98277 | -22.60940 | 164 ft | 18 kts | 181° |
| 2026-05-06 18:25 | 63.98148 | -22.60945 | 163 ft | 20 kts | 180° |
| 2026-05-06 18:25 | 63.98002 | -22.60948 | 162 ft | 22 kts | 180° |
| 2026-05-06 18:25 | 63.97841 | -22.60947 | 161 ft | 24 kts | 180° |
| 2026-05-06 18:25 | 63.97664 | -22.60945 | 159 ft | 27 kts | 179° |
| 2026-05-06 18:26 | 63.97470 | -22.60943 | 157 ft | 29 kts | 179° |
| 2026-05-06 18:26 | 63.97262 | -22.60947 | 155 ft | 31 kts | 180° |
| 2026-05-06 18:26 | 63.97041 | -22.60949 | 153 ft | 33 kts | 180° |
| 2026-05-06 18:26 | 63.96806 | -22.60945 | 150 ft | 34 kts | 179° |
| 2026-05-06 18:27 | 63.96586 | -22.60943 | 148 ft | 29 kts | 180° |
| 2026-05-06 18:27 | 63.96473 | -22.60895 | 147 ft | 5 kts | 124° |
| 2026-05-06 18:27 | 63.96464 | -22.60820 | 147 ft | 6 kts | 98° |
| 2026-05-06 18:27 | 63.96464 | -22.60614 | 146 ft | 21 kts | 80° |
| 2026-05-06 18:28 | 63.96562 | -22.60546 | 148 ft | 38 kts | 359° |
| 2026-05-06 18:28 | 63.97115 | -22.60546 | 153 ft | 119 kts | 0° |
| 2026-05-06 18:28 | 63.98133 | -22.60589 | 424 ft | 161 kts | 2° |
| 2026-05-06 18:28 | 63.99293 | -22.60602 | 1367 ft | 170 kts | 4° |
| 2026-05-06 18:29 | 64.00467 | -22.60558 | 2340 ft | 172 kts | 4° |
| 2026-05-06 18:29 | 64.01742 | -22.60504 | 2803 ft | 194 kts | 4° |
| 2026-05-06 18:29 | 64.03150 | -22.60449 | 2850 ft | 206 kts | 4° |
| 2026-05-06 18:29 | 64.04569 | -22.60010 | 2866 ft | 208 kts | 23° |
| 2026-05-06 18:30 | 64.05759 | -22.58167 | 2880 ft | 209 kts | 46° |
| 2026-05-06 18:30 | 64.06470 | -22.55254 | 2839 ft | 215 kts | 71° |
| 2026-05-06 18:30 | 64.06502 | -22.51813 | 2819 ft | 226 kts | 98° |
| 2026-05-06 18:30 | 64.05776 | -22.48454 | 2835 ft | 249 kts | 128° |
| 2026-05-06 18:31 | 64.04296 | -22.46277 | 2865 ft | 262 kts | 157° |
| 2026-05-06 18:31 | 64.02565 | -22.44851 | 2881 ft | 268 kts | 155° |
| 2026-05-06 18:31 | 64.00879 | -22.43390 | 4046 ft | 258 kts | 156° |
| 2026-05-06 18:31 | 63.99154 | -22.41955 | 5012 ft | 272 kts | 156° |
| 2026-05-06 18:32 | 63.97341 | -22.40406 | 6063 ft | 275 kts | 156° |
| 2026-05-06 18:32 | 63.95540 | -22.38912 | 7205 ft | 276 kts | 157° |
| 2026-05-06 18:32 | 63.93739 | -22.37431 | 8138 ft | 283 kts | 156° |
| 2026-05-06 18:32 | 63.91850 | -22.35872 | 9134 ft | 287 kts | 157° |
| 2026-05-06 18:33 | 63.89952 | -22.34310 | 10105 ft | 292 kts | 156° |
| 2026-05-06 18:33 | 63.88020 | -22.32716 | 10874 ft | 301 kts | 156° |
| 2026-05-06 18:33 | 63.86007 | -22.31023 | 11412 ft | 318 kts | 156° |
| 2026-05-06 18:33 | 63.83902 | -22.29236 | 11865 ft | 336 kts | 156° |
| 2026-05-06 18:34 | 63.81636 | -22.27311 | 12377 ft | 350 kts | 156° |
| 2026-05-06 18:34 | 63.79321 | -22.25366 | 13129 ft | 356 kts | 157° |
| 2026-05-06 18:34 | 63.76988 | -22.23455 | 13984 ft | 359 kts | 157° |
| 2026-05-06 18:34 | 63.74622 | -22.21527 | 14666 ft | 364 kts | 157° |
| 2026-05-06 18:35 | 63.72226 | -22.19595 | 15355 ft | 367 kts | 157° |
| 2026-05-06 18:35 | 63.69840 | -22.17672 | 16015 ft | 371 kts | 158° |
| 2026-05-06 18:35 | 63.67372 | -22.15691 | 16696 ft | 375 kts | 158° |
| 2026-05-06 18:35 | 63.64892 | -22.13707 | 17342 ft | 379 kts | 158° |
| 2026-05-06 18:36 | 63.62398 | -22.11715 | 17986 ft | 383 kts | 157° |
| 2026-05-06 18:36 | 63.59873 | -22.09702 | 18606 ft | 387 kts | 157° |
| 2026-05-06 18:36 | 63.57322 | -22.07671 | 19142 ft | 390 kts | 157° |
| 2026-05-06 18:36 | 63.54751 | -22.05632 | 19712 ft | 393 kts | 157° |
| 2026-05-06 18:37 | 63.52164 | -22.03583 | 20243 ft | 397 kts | 157° |
| 2026-05-06 18:37 | 63.50429 | -22.02210 | 20603 ft | 399 kts | 157° |
| 2026-05-06 18:37 | 63.46909 | -21.99434 | 21320 ft | 403 kts | 157° |
| 2026-05-06 18:37 | 63.44256 | -21.97347 | 21844 ft | 406 kts | 157° |
| 2026-05-06 18:38 | 63.41587 | -21.95251 | 22361 ft | 409 kts | 157° |
| 2026-05-06 18:38 | 63.38889 | -21.93137 | 22877 ft | 412 kts | 158° |
| 2026-05-06 18:38 | 63.36172 | -21.91014 | 23370 ft | 415 kts | 157° |
| 2026-05-06 18:38 | 63.33439 | -21.88881 | 23855 ft | 418 kts | 158° |
| 2026-05-06 18:39 | 63.30681 | -21.86735 | 24264 ft | 421 kts | 158° |
| 2026-05-06 18:39 | 63.27907 | -21.84581 | 24659 ft | 424 kts | 158° |
| 2026-05-06 18:39 | 63.25117 | -21.82420 | 25054 ft | 426 kts | 158° |
| 2026-05-06 18:40 | 63.19479 | -21.78067 | 25817 ft | 432 kts | 158° |
| 2026-05-06 18:40 | 63.16640 | -21.75882 | 26192 ft | 434 kts | 158° |
| 2026-05-06 18:40 | 63.13771 | -21.73679 | 26551 ft | 437 kts | 158° |
| 2026-05-06 18:40 | 63.10880 | -21.71463 | 26811 ft | 442 kts | 158° |
| 2026-05-06 18:41 | 63.08126 | -21.68556 | 27164 ft | 438 kts | 142° |
| 2026-05-06 18:41 | 63.06553 | -21.65785 | 27362 ft | 436 kts | 133° |
| 2026-05-06 18:41 | 63.04473 | -21.60906 | 27634 ft | 438 kts | 129° |
| 2026-05-06 18:41 | 63.02421 | -21.55909 | 27945 ft | 441 kts | 128° |
| 2026-05-06 18:42 | 63.00397 | -21.50821 | 28263 ft | 443 kts | 128° |
| 2026-05-06 18:42 | 62.98355 | -21.45717 | 28572 ft | 446 kts | 128° |
| 2026-05-06 18:42 | 62.96292 | -21.40612 | 28881 ft | 448 kts | 129° |
| 2026-05-06 18:42 | 62.94211 | -21.35483 | 29185 ft | 451 kts | 129° |
| 2026-05-06 18:43 | 62.92185 | -21.30507 | 29468 ft | 453 kts | 129° |
| 2026-05-06 18:43 | 62.90058 | -21.25290 | 29758 ft | 456 kts | 129° |
| 2026-05-06 18:43 | 62.87936 | -21.20102 | 30043 ft | 458 kts | 129° |
| 2026-05-06 18:43 | 62.85811 | -21.14919 | 30310 ft | 460 kts | 129° |
| 2026-05-06 18:44 | 62.83658 | -21.09678 | 30496 ft | 463 kts | 129° |
| 2026-05-06 18:44 | 62.81494 | -21.04421 | 30719 ft | 465 kts | 130° |
| 2026-05-06 18:44 | 62.79321 | -20.99158 | 30924 ft | 468 kts | 130° |
| 2026-05-06 18:44 | 62.77140 | -20.93884 | 31170 ft | 469 kts | 130° |
| 2026-05-06 18:45 | 62.74945 | -20.88592 | 31450 ft | 469 kts | 130° |
| 2026-05-06 18:45 | 62.72753 | -20.83316 | 31703 ft | 471 kts | 130° |
| 2026-05-06 18:45 | 62.70545 | -20.78019 | 31927 ft | 472 kts | 130° |
| 2026-05-06 18:45 | 62.68328 | -20.72741 | 32158 ft | 474 kts | 131° |
| 2026-05-06 18:46 | 62.66097 | -20.67459 | 32383 ft | 475 kts | 130° |
| 2026-05-06 18:46 | 62.63868 | -20.62137 | 32599 ft | 477 kts | 131° |
| 2026-05-06 18:46 | 62.61622 | -20.56814 | 32839 ft | 478 kts | 131° |
| 2026-05-06 18:46 | 62.59382 | -20.51503 | 33034 ft | 480 kts | 131° |
| 2026-05-06 18:47 | 62.57125 | -20.46155 | 33277 ft | 480 kts | 131° |
| 2026-05-06 18:47 | 62.54857 | -20.40797 | 33500 ft | 482 kts | 131° |
| 2026-05-06 18:47 | 62.52586 | -20.35443 | 33711 ft | 483 kts | 131° |
| 2026-05-06 18:47 | 62.50309 | -20.30085 | 33978 ft | 483 kts | 132° |
| 2026-05-06 18:48 | 62.48033 | -20.24747 | 34158 ft | 485 kts | 132° |
| 2026-05-06 18:48 | 62.45742 | -20.19380 | 34360 ft | 486 kts | 132° |
| 2026-05-06 18:48 | 62.43448 | -20.14022 | 34580 ft | 485 kts | 132° |
| 2026-05-06 18:48 | 62.41152 | -20.08666 | 34782 ft | 486 kts | 132° |
| 2026-05-06 18:49 | 62.38856 | -20.03324 | 34966 ft | 486 kts | 133° |
| 2026-05-06 18:49 | 62.36433 | -19.98257 | 35118 ft | 486 kts | 140° |
| 2026-05-06 18:49 | 62.33869 | -19.93510 | 35105 ft | 486 kts | 139° |
| 2026-05-06 18:50 | 62.28802 | -19.83886 | 35108 ft | 485 kts | 139° |
| 2026-05-06 18:50 | 62.23763 | -19.74271 | 35104 ft | 485 kts | 139° |
| 2026-05-06 18:51 | 62.18704 | -19.64657 | 35098 ft | 485 kts | 139° |
| 2026-05-06 18:51 | 62.13644 | -19.55082 | 35096 ft | 485 kts | 139° |
| 2026-05-06 18:52 | 62.08584 | -19.45551 | 35086 ft | 485 kts | 139° |
| 2026-05-06 18:52 | 62.03518 | -19.36054 | 35078 ft | 485 kts | 139° |
| 2026-05-06 18:53 | 61.98446 | -19.26589 | 35076 ft | 485 kts | 139° |
| 2026-05-06 18:53 | 61.93370 | -19.17161 | 35065 ft | 485 kts | 140° |
| 2026-05-06 18:54 | 61.88281 | -19.07751 | 35056 ft | 485 kts | 140° |
| 2026-05-06 18:54 | 61.83189 | -18.98379 | 35050 ft | 485 kts | 140° |
| 2026-05-06 18:55 | 61.78091 | -18.89040 | 35042 ft | 485 kts | 140° |
| 2026-05-06 18:55 | 61.72982 | -18.79720 | 35032 ft | 485 kts | 140° |
| 2026-05-06 18:56 | 61.67870 | -18.70442 | 35029 ft | 485 kts | 141° |
| 2026-05-06 18:56 | 61.62745 | -18.61178 | 35019 ft | 486 kts | 140° |
| 2026-05-06 18:57 | 61.57622 | -18.51960 | 35009 ft | 486 kts | 141° |
| 2026-05-06 18:57 | 61.52478 | -18.42737 | 35001 ft | 486 kts | 141° |
| 2026-05-06 18:58 | 61.47766 | -18.32620 | 34999 ft | 488 kts | 130° |
| 2026-05-06 18:58 | 61.43424 | -18.21707 | 34989 ft | 489 kts | 131° |
| 2026-05-06 18:59 | 61.39076 | -18.10787 | 34975 ft | 489 kts | 131° |
| 2026-05-06 18:59 | 61.34721 | -17.99895 | 34964 ft | 489 kts | 131° |
| 2026-05-06 19:00 | 61.30361 | -17.89043 | 34958 ft | 489 kts | 131° |
| 2026-05-06 19:00 | 61.25979 | -17.78193 | 34956 ft | 490 kts | 131° |
| 2026-05-06 19:01 | 61.21589 | -17.67371 | 34939 ft | 490 kts | 132° |
| 2026-05-06 19:01 | 61.17188 | -17.56574 | 34939 ft | 490 kts | 132° |
| 2026-05-06 19:02 | 61.12780 | -17.45811 | 34913 ft | 490 kts | 132° |
| 2026-05-06 19:02 | 61.08355 | -17.35058 | 34910 ft | 492 kts | 133° |
| 2026-05-06 19:03 | 61.03919 | -17.24326 | 34909 ft | 491 kts | 133° |
| 2026-05-06 19:03 | 60.99471 | -17.13620 | 34893 ft | 491 kts | 133° |
| 2026-05-06 19:04 | 60.95014 | -17.02942 | 34880 ft | 492 kts | 133° |
| 2026-05-06 19:04 | 60.90541 | -16.92273 | 34868 ft | 493 kts | 133° |
| 2026-05-06 19:05 | 60.86049 | -16.81609 | 34852 ft | 494 kts | 133° |
| 2026-05-06 19:05 | 60.81552 | -16.70986 | 34849 ft | 493 kts | 134° |
| 2026-05-06 19:06 | 60.77042 | -16.60378 | 34832 ft | 494 kts | 134° |
| 2026-05-06 19:06 | 60.72520 | -16.49796 | 34830 ft | 494 kts | 134° |
| 2026-05-06 19:07 | 60.67990 | -16.39242 | 34816 ft | 494 kts | 134° |
| 2026-05-06 19:07 | 60.63447 | -16.28709 | 34804 ft | 495 kts | 135° |
| 2026-05-06 19:08 | 60.58894 | -16.18199 | 34793 ft | 495 kts | 135° |
| 2026-05-06 19:08 | 60.54334 | -16.07722 | 34783 ft | 494 kts | 135° |
| 2026-05-06 19:09 | 60.49769 | -15.97283 | 34773 ft | 494 kts | 135° |
| 2026-05-06 19:09 | 60.45197 | -15.86872 | 34763 ft | 494 kts | 136° |
| 2026-05-06 19:10 | 60.40610 | -15.76478 | 34753 ft | 495 kts | 135° |
| 2026-05-06 19:10 | 60.36023 | -15.66134 | 34741 ft | 494 kts | 136° |
| 2026-05-06 19:11 | 60.31429 | -15.55817 | 34738 ft | 493 kts | 136° |
| 2026-05-06 19:11 | 60.26841 | -15.45561 | 34724 ft | 491 kts | 136° |
| 2026-05-06 19:12 | 60.22268 | -15.35385 | 34716 ft | 490 kts | 136° |
| 2026-05-06 19:12 | 60.17694 | -15.25253 | 34710 ft | 488 kts | 136° |
| 2026-05-06 19:13 | 60.13131 | -15.15192 | 34703 ft | 487 kts | 136° |
| 2026-05-06 19:13 | 60.08558 | -15.05150 | 34700 ft | 487 kts | 136° |
| 2026-05-06 19:14 | 60.03980 | -14.95144 | 34693 ft | 488 kts | 136° |
| 2026-05-06 19:14 | 59.99384 | -14.85143 | 34681 ft | 488 kts | 137° |
| 2026-05-06 19:15 | 59.94780 | -14.75167 | 34682 ft | 489 kts | 137° |
| 2026-05-06 19:15 | 59.90164 | -14.65209 | 34677 ft | 489 kts | 137° |
| 2026-05-06 19:16 | 59.85510 | -14.55213 | 34671 ft | 490 kts | 137° |
| 2026-05-06 19:16 | 59.80897 | -14.45350 | 34672 ft | 490 kts | 138° |
| 2026-05-06 19:17 | 59.76216 | -14.35386 | 34672 ft | 491 kts | 138° |
| 2026-05-06 19:17 | 59.71549 | -14.25495 | 34670 ft | 492 kts | 138° |
| 2026-05-06 19:18 | 59.66865 | -14.15610 | 34667 ft | 492 kts | 139° |
| 2026-05-06 19:18 | 59.62197 | -14.05803 | 34668 ft | 493 kts | 139° |
| 2026-05-06 19:19 | 59.57484 | -13.95945 | 34670 ft | 494 kts | 139° |
| 2026-05-06 19:19 | 59.52728 | -13.86038 | 34674 ft | 495 kts | 139° |
| 2026-05-06 19:20 | 59.48012 | -13.76258 | 34677 ft | 496 kts | 140° |
| 2026-05-06 19:20 | 59.43252 | -13.66433 | 34679 ft | 496 kts | 140° |
| 2026-05-06 19:21 | 59.38476 | -13.56614 | 34685 ft | 497 kts | 140° |
| 2026-05-06 19:21 | 59.34469 | -13.48409 | 34681 ft | 498 kts | 140° |
| 2026-05-06 19:22 | 59.29671 | -13.38626 | 34688 ft | 499 kts | 140° |
| 2026-05-06 19:22 | 59.24852 | -13.28841 | 34689 ft | 499 kts | 140° |
| 2026-05-06 19:23 | 59.20025 | -13.19083 | 34688 ft | 500 kts | 141° |
| 2026-05-06 19:23 | 59.15182 | -13.09335 | 34696 ft | 500 kts | 141° |
| 2026-05-06 19:24 | 59.10334 | -12.99618 | 34702 ft | 501 kts | 141° |
| 2026-05-06 19:24 | 59.05465 | -12.89903 | 34699 ft | 502 kts | 141° |
| 2026-05-06 19:25 | 59.00580 | -12.80197 | 34701 ft | 502 kts | 141° |
| 2026-05-06 19:25 | 58.95684 | -12.70511 | 34702 ft | 503 kts | 141° |
| 2026-05-06 19:26 | 58.90788 | -12.60867 | 34709 ft | 503 kts | 141° |
| 2026-05-06 19:26 | 58.85871 | -12.51224 | 34709 ft | 503 kts | 141° |
| 2026-05-06 19:27 | 58.80951 | -12.41615 | 34716 ft | 503 kts | 141° |
| 2026-05-06 19:27 | 58.76023 | -12.32032 | 34718 ft | 504 kts | 141° |
| 2026-05-06 19:28 | 58.71085 | -12.22471 | 34721 ft | 503 kts | 141° |
| 2026-05-06 19:28 | 58.66139 | -12.12935 | 34728 ft | 503 kts | 141° |
| 2026-05-06 19:29 | 58.61190 | -12.03434 | 34730 ft | 503 kts | 141° |
| 2026-05-06 19:29 | 58.56228 | -11.93950 | 34737 ft | 503 kts | 141° |
| 2026-05-06 19:30 | 58.51262 | -11.84496 | 34741 ft | 503 kts | 141° |
| 2026-05-06 19:30 | 58.46291 | -11.75071 | 34741 ft | 503 kts | 141° |
| 2026-05-06 19:31 | 58.41318 | -11.65685 | 34745 ft | 503 kts | 141° |
| 2026-05-06 19:31 | 58.33849 | -11.51659 | 34758 ft | 502 kts | 141° |
| 2026-05-06 19:32 | 58.28835 | -11.42296 | 34752 ft | 502 kts | 141° |
| 2026-05-06 19:32 | 58.23845 | -11.33014 | 34773 ft | 502 kts | 141° |
| 2026-05-06 19:33 | 58.18856 | -11.23772 | 34770 ft | 501 kts | 141° |
| 2026-05-06 19:33 | 58.13859 | -11.14555 | 34773 ft | 501 kts | 141° |
| 2026-05-06 19:34 | 58.08859 | -11.05367 | 34780 ft | 501 kts | 141° |
| 2026-05-06 19:34 | 58.03852 | -10.96207 | 34788 ft | 501 kts | 141° |
| 2026-05-06 19:35 | 57.98833 | -10.87062 | 34796 ft | 501 kts | 141° |
| 2026-05-06 19:35 | 57.93817 | -10.77961 | 34798 ft | 501 kts | 141° |
| 2026-05-06 19:36 | 57.88796 | -10.68879 | 34809 ft | 501 kts | 141° |
| 2026-05-06 19:36 | 57.83769 | -10.59822 | 34812 ft | 501 kts | 141° |
| 2026-05-06 19:37 | 57.78730 | -10.50780 | 34818 ft | 501 kts | 141° |
| 2026-05-06 19:37 | 57.73689 | -10.41769 | 34822 ft | 501 kts | 141° |
| 2026-05-06 19:38 | 57.68649 | -10.32794 | 34826 ft | 500 kts | 141° |
| 2026-05-06 19:38 | 57.63607 | -10.23852 | 34834 ft | 500 kts | 141° |
| 2026-05-06 19:39 | 57.58548 | -10.14914 | 34837 ft | 500 kts | 141° |
| 2026-05-06 19:39 | 57.53500 | -10.06030 | 34843 ft | 500 kts | 141° |
| 2026-05-06 19:40 | 57.51099 | -10.01297 | 34834 ft | 505 kts | 130° |
| 2026-05-06 19:40 | 57.49139 | -9.95859 | 34852 ft | 509 kts | 121° |
| 2026-05-06 19:40 | 57.47786 | -9.89794 | 34843 ft | 510 kts | 105° |
| 2026-05-06 19:40 | 57.47079 | -9.83330 | 34857 ft | 512 kts | 102° |
| 2026-05-06 19:41 | 57.45996 | -9.77051 | 34867 ft | 509 kts | 114° |
| 2026-05-06 19:41 | 57.44744 | -9.70880 | 34859 ft | 511 kts | 110° |
| 2026-05-06 19:41 | 57.42407 | -9.58419 | 34864 ft | 511 kts | 111° |
| 2026-05-06 19:42 | 57.40906 | -9.52477 | 34865 ft | 507 kts | 125° |
| 2026-05-06 19:42 | 57.38708 | -9.47476 | 34868 ft | 497 kts | 142° |
| 2026-05-06 19:42 | 57.33376 | -9.39357 | 34875 ft | 496 kts | 146° |
| 2026-05-06 19:43 | 57.27951 | -9.31458 | 34878 ft | 496 kts | 146° |
| 2026-05-06 19:43 | 57.22495 | -9.23654 | 34890 ft | 496 kts | 147° |
| 2026-05-06 19:44 | 57.17032 | -9.15879 | 34891 ft | 496 kts | 147° |
| 2026-05-06 19:44 | 57.11563 | -9.08125 | 34894 ft | 496 kts | 146° |
| 2026-05-06 19:45 | 57.06093 | -9.00400 | 34902 ft | 496 kts | 146° |
| 2026-05-06 19:45 | 57.00612 | -8.92688 | 34903 ft | 496 kts | 146° |
| 2026-05-06 19:46 | 56.95128 | -8.85002 | 34905 ft | 496 kts | 146° |
| 2026-05-06 19:46 | 56.89641 | -8.77340 | 34910 ft | 496 kts | 146° |
| 2026-05-06 19:47 | 56.84172 | -8.69734 | 34915 ft | 497 kts | 146° |
| 2026-05-06 19:47 | 56.78632 | -8.62056 | 34920 ft | 497 kts | 146° |
| 2026-05-06 19:48 | 56.73124 | -8.54453 | 34919 ft | 497 kts | 146° |
| 2026-05-06 19:48 | 56.67598 | -8.46853 | 34925 ft | 497 kts | 146° |
| 2026-05-06 19:49 | 56.62071 | -8.39280 | 34928 ft | 498 kts | 146° |
| 2026-05-06 19:49 | 56.56540 | -8.31731 | 34931 ft | 498 kts | 146° |
| 2026-05-06 19:50 | 56.51007 | -8.24206 | 34934 ft | 497 kts | 146° |
| 2026-05-06 19:50 | 56.45470 | -8.16704 | 34936 ft | 497 kts | 146° |
| 2026-05-06 19:51 | 56.39940 | -8.09240 | 34936 ft | 496 kts | 146° |
| 2026-05-06 19:51 | 56.34407 | -8.01800 | 34935 ft | 496 kts | 146° |
| 2026-05-06 19:52 | 56.28876 | -7.94391 | 34944 ft | 495 kts | 146° |
| 2026-05-06 19:52 | 56.23345 | -7.87007 | 34940 ft | 494 kts | 146° |
| 2026-05-06 19:53 | 56.17820 | -7.79659 | 34951 ft | 494 kts | 146° |
| 2026-05-06 19:53 | 56.12298 | -7.72341 | 34947 ft | 493 kts | 146° |
| 2026-05-06 19:54 | 56.06779 | -7.65052 | 34948 ft | 493 kts | 146° |
| 2026-05-06 19:54 | 56.01264 | -7.57790 | 34956 ft | 493 kts | 146° |
| 2026-05-06 19:55 | 55.95627 | -7.50931 | 34967 ft | 489 kts | 153° |
| 2026-05-06 19:55 | 55.89727 | -7.44858 | 34960 ft | 490 kts | 153° |
| 2026-05-06 19:56 | 55.83812 | -7.38820 | 34959 ft | 490 kts | 153° |
| 2026-05-06 19:56 | 55.77896 | -7.32805 | 34960 ft | 490 kts | 153° |
| 2026-05-06 19:57 | 55.71980 | -7.26812 | 34965 ft | 490 kts | 153° |
| 2026-05-06 19:57 | 55.66067 | -7.20842 | 34964 ft | 490 kts | 153° |
| 2026-05-06 19:58 | 55.60146 | -7.14886 | 34964 ft | 490 kts | 152° |
| 2026-05-06 19:58 | 55.55213 | -7.09940 | 34963 ft | 490 kts | 152° |
| 2026-05-06 19:59 | 55.49290 | -7.04019 | 34964 ft | 490 kts | 152° |
| 2026-05-06 19:59 | 55.43368 | -6.98120 | 34966 ft | 489 kts | 152° |
| 2026-05-06 20:00 | 55.37439 | -6.92235 | 34968 ft | 489 kts | 152° |
| 2026-05-06 20:00 | 55.31506 | -6.86366 | 34968 ft | 489 kts | 152° |
| 2026-05-06 20:01 | 55.25612 | -6.80557 | 34965 ft | 489 kts | 152° |
| 2026-05-06 20:01 | 55.19675 | -6.74724 | 34966 ft | 489 kts | 152° |
| 2026-05-06 20:02 | 55.13697 | -6.68872 | 34970 ft | 489 kts | 152° |
| 2026-05-06 20:02 | 55.07801 | -6.63120 | 34969 ft | 489 kts | 152° |
| 2026-05-06 20:03 | 55.01825 | -6.57310 | 34971 ft | 488 kts | 152° |
| 2026-05-06 20:03 | 54.95948 | -6.51615 | 34970 ft | 488 kts | 152° |
| 2026-05-06 20:04 | 54.90007 | -6.45879 | 34975 ft | 487 kts | 151° |
| 2026-05-06 20:04 | 54.84053 | -6.40149 | 34981 ft | 486 kts | 151° |
| 2026-05-06 20:05 | 54.78167 | -6.34503 | 34987 ft | 486 kts | 151° |
| 2026-05-06 20:05 | 54.72218 | -6.28813 | 34993 ft | 485 kts | 151° |
| 2026-05-06 20:06 | 54.66318 | -6.23120 | 34986 ft | 485 kts | 146° |
| 2026-05-06 20:06 | 54.60827 | -6.16385 | 34991 ft | 484 kts | 144° |
| 2026-05-06 20:07 | 54.55370 | -6.09596 | 34988 ft | 484 kts | 143° |
| 2026-05-06 20:07 | 54.49903 | -6.02809 | 34989 ft | 484 kts | 143° |
| 2026-05-06 20:08 | 54.44453 | -5.96065 | 34940 ft | 478 kts | 143° |
| 2026-05-06 20:08 | 54.41768 | -5.92750 | 34194 ft | 478 kts | 143° |
| 2026-05-06 20:08 | 54.39035 | -5.89383 | 32928 ft | 489 kts | 143° |
| 2026-05-06 20:09 | 54.36256 | -5.85968 | 31972 ft | 492 kts | 143° |
| 2026-05-06 20:09 | 54.33487 | -5.82567 | 31508 ft | 485 kts | 143° |
| 2026-05-06 20:09 | 54.30760 | -5.79223 | 30884 ft | 481 kts | 144° |
| 2026-05-06 20:09 | 54.28034 | -5.75886 | 30138 ft | 481 kts | 144° |
| 2026-05-06 20:10 | 54.25316 | -5.72565 | 29543 ft | 476 kts | 144° |
| 2026-05-06 20:10 | 54.22644 | -5.69304 | 28959 ft | 470 kts | 144° |
| 2026-05-06 20:10 | 54.19961 | -5.66148 | 28297 ft | 467 kts | 150° |
| 2026-05-06 20:10 | 54.17008 | -5.63987 | 27727 ft | 460 kts | 166° |
| 2026-05-06 20:11 | 54.13883 | -5.63201 | 27221 ft | 450 kts | 181° |
| 2026-05-06 20:11 | 54.10822 | -5.63702 | 26990 ft | 434 kts | 196° |
| 2026-05-06 20:11 | 54.08021 | -5.65312 | 26868 ft | 417 kts | 204° |
| 2026-05-06 20:11 | 54.05405 | -5.67169 | 26764 ft | 402 kts | 206° |
| 2026-05-06 20:12 | 54.02893 | -5.69090 | 26662 ft | 389 kts | 207° |
| 2026-05-06 20:12 | 54.00565 | -5.70938 | 26557 ft | 376 kts | 208° |
| 2026-05-06 20:12 | 53.98294 | -5.72769 | 26478 ft | 364 kts | 207° |
| 2026-05-06 20:12 | 53.95933 | -5.74107 | 26337 ft | 355 kts | 189° |
| 2026-05-06 20:13 | 53.93503 | -5.74341 | 26272 ft | 342 kts | 185° |
| 2026-05-06 20:13 | 53.91161 | -5.74547 | 26086 ft | 334 kts | 185° |
| 2026-05-06 20:13 | 53.88825 | -5.74739 | 25573 ft | 339 kts | 185° |
| 2026-05-06 20:13 | 53.86456 | -5.74921 | 25057 ft | 342 kts | 185° |
| 2026-05-06 20:14 | 53.84074 | -5.75095 | 24552 ft | 344 kts | 185° |
| 2026-05-06 20:14 | 53.81672 | -5.75266 | 24057 ft | 346 kts | 185° |
| 2026-05-06 20:14 | 53.79249 | -5.75439 | 23530 ft | 349 kts | 185° |
| 2026-05-06 20:14 | 53.76810 | -5.75611 | 22797 ft | 355 kts | 185° |
| 2026-05-06 20:15 | 53.74302 | -5.75788 | 21909 ft | 366 kts | 185° |
| 2026-05-06 20:15 | 53.71730 | -5.75969 | 21069 ft | 374 kts | 185° |
| 2026-05-06 20:15 | 53.69099 | -5.76154 | 20260 ft | 381 kts | 185° |
| 2026-05-06 20:15 | 53.66425 | -5.76336 | 19477 ft | 387 kts | 183° |
| 2026-05-06 20:16 | 53.63747 | -5.75773 | 18717 ft | 396 kts | 165° |
| 2026-05-06 20:16 | 53.61256 | -5.73671 | 17907 ft | 405 kts | 145° |
| 2026-05-06 20:16 | 53.59310 | -5.70221 | 17042 ft | 412 kts | 124° |
| 2026-05-06 20:16 | 53.57848 | -5.66065 | 16206 ft | 414 kts | 126° |
| 2026-05-06 20:17 | 53.55922 | -5.62499 | 15398 ft | 411 kts | 143° |
| 2026-05-06 20:17 | 53.53531 | -5.59928 | 14645 ft | 408 kts | 151° |
| 2026-05-06 20:17 | 53.51099 | -5.57476 | 13990 ft | 405 kts | 151° |
| 2026-05-06 20:17 | 53.48592 | -5.55329 | 13049 ft | 404 kts | 164° |
| 2026-05-06 20:18 | 53.45850 | -5.54460 | 12249 ft | 400 kts | 173° |
| 2026-05-06 20:18 | 53.43141 | -5.53749 | 11501 ft | 385 kts | 173° |
| 2026-05-06 20:18 | 53.40551 | -5.53064 | 10782 ft | 370 kts | 175° |
| 2026-05-06 20:18 | 53.38039 | -5.53317 | 10058 ft | 355 kts | 195° |
| 2026-05-06 20:19 | 53.35681 | -5.54276 | 9327 ft | 344 kts | 194° |
| 2026-05-06 20:19 | 53.33379 | -5.55154 | 8618 ft | 333 kts | 194° |
| 2026-05-06 20:19 | 53.31168 | -5.55993 | 8110 ft | 319 kts | 195° |
| 2026-05-06 20:19 | 53.29264 | -5.57524 | 8011 ft | 288 kts | 217° |
| 2026-05-06 20:20 | 53.27686 | -5.59327 | 8037 ft | 263 kts | 214° |
| 2026-05-06 20:20 | 53.26238 | -5.60947 | 8010 ft | 239 kts | 218° |
| 2026-05-06 20:20 | 53.25191 | -5.63017 | 7794 ft | 236 kts | 246° |
| 2026-05-06 20:20 | 53.24908 | -5.65675 | 7497 ft | 236 kts | 275° |
| 2026-05-06 20:21 | 53.25389 | -5.68162 | 7246 ft | 237 kts | 300° |
| 2026-05-06 20:21 | 53.26433 | -5.70295 | 6994 ft | 239 kts | 310° |
| 2026-05-06 20:21 | 53.27565 | -5.72337 | 6736 ft | 239 kts | 311° |
| 2026-05-06 20:21 | 53.28705 | -5.74360 | 6462 ft | 238 kts | 311° |
| 2026-05-06 20:22 | 53.29845 | -5.76366 | 6179 ft | 237 kts | 311° |
| 2026-05-06 20:22 | 53.30975 | -5.78342 | 5899 ft | 235 kts | 311° |
| 2026-05-06 20:22 | 53.32101 | -5.80302 | 5628 ft | 232 kts | 312° |
| 2026-05-06 20:22 | 53.33213 | -5.82235 | 5353 ft | 229 kts | 312° |
| 2026-05-06 20:23 | 53.34322 | -5.84162 | 5016 ft | 229 kts | 312° |
| 2026-05-06 20:23 | 53.35422 | -5.86067 | 4776 ft | 225 kts | 312° |
| 2026-05-06 20:23 | 53.36493 | -5.87926 | 4570 ft | 219 kts | 312° |
| 2026-05-06 20:23 | 53.37535 | -5.89738 | 4347 ft | 214 kts | 312° |
| 2026-05-06 20:24 | 53.38577 | -5.91549 | 4102 ft | 218 kts | 312° |
| 2026-05-06 20:24 | 53.39595 | -5.93342 | 3864 ft | 219 kts | 308° |
| 2026-05-06 20:24 | 53.40326 | -5.95544 | 3626 ft | 216 kts | 285° |
| 2026-05-06 20:24 | 53.40594 | -5.98017 | 3370 ft | 216 kts | 274° |
| 2026-05-06 20:25 | 53.40725 | -6.00523 | 3106 ft | 217 kts | 273° |
| 2026-05-06 20:25 | 53.40854 | -6.03047 | 2822 ft | 217 kts | 273° |
| 2026-05-06 20:25 | 53.40986 | -6.05540 | 2544 ft | 212 kts | 273° |
| 2026-05-06 20:25 | 53.41118 | -6.08012 | 2264 ft | 213 kts | 273° |
| 2026-05-06 20:26 | 53.41251 | -6.10493 | 1972 ft | 214 kts | 273° |
| 2026-05-06 20:26 | 53.41383 | -6.12970 | 1681 ft | 214 kts | 273° |
| 2026-05-06 20:26 | 53.41517 | -6.15449 | 1384 ft | 213 kts | 273° |
| 2026-05-06 20:26 | 53.41648 | -6.17922 | 1084 ft | 214 kts | 274° |
| 2026-05-06 20:27 | 53.41783 | -6.20411 | 788 ft | 215 kts | 273° |
| 2026-05-06 20:27 | 53.41913 | -6.22862 | 555 ft | 214 kts | 274° |
| 2026-05-06 20:27 | 53.42029 | -6.24994 | 276 ft | 212 kts | 274° |
| 2026-05-06 20:27 | 53.42135 | -6.27283 | 233 ft | 163 kts | 276° |
| 2026-05-06 20:28 | 53.42215 | -6.28512 | 239 ft | 58 kts | 276° |
| 2026-05-06 20:28 | 53.42237 | -6.28879 | 239 ft | 8 kts | 287° |
| 2026-05-06 20:28 | 53.42248 | -6.28986 | 239 ft | 10 kts | 279° |
| 2026-05-06 20:28 | 53.42296 | -6.29075 | 235 ft | 2 kts | 349° |
| 2026-05-06 20:29 | 53.42335 | -6.29077 | 229 ft | 9 kts | 3° |
| 2026-05-06 20:29 | 53.42382 | -6.29051 | 228 ft | 0 kts | 28° |
| 2026-05-06 20:29 | 53.42391 | -6.29041 | 228 ft | 4 kts | 36° |
| 2026-05-06 20:29 | 53.42417 | -6.28968 | 228 ft | 9 kts | 85° |
| 2026-05-06 20:30 | 53.42404 | -6.28817 | 228 ft | 16 kts | 92° |
| 2026-05-06 20:30 | 53.42381 | -6.28344 | 228 ft | 24 kts | 97° |
| 2026-05-06 20:30 | 53.42364 | -6.28051 | 228 ft | 27 kts | 95° |
| 2026-05-06 20:31 | 53.42347 | -6.27753 | 227 ft | 25 kts | 96° |
| 2026-05-06 20:31 | 53.42329 | -6.27459 | 227 ft | 26 kts | 96° |
| 2026-05-06 20:31 | 53.42314 | -6.27147 | 227 ft | 27 kts | 94° |
| 2026-05-06 20:31 | 53.42296 | -6.26825 | 227 ft | 28 kts | 96° |
| 2026-05-06 20:32 | 53.42277 | -6.26494 | 227 ft | 30 kts | 95° |
| 2026-05-06 20:32 | 53.42270 | -6.26220 | 227 ft | 20 kts | 75° |
| 2026-05-06 20:32 | 53.42344 | -6.26021 | 227 ft | 21 kts | 45° |
| 2026-05-06 20:32 | 53.42453 | -6.25838 | 227 ft | 23 kts | 45° |
| 2026-05-06 20:33 | 53.42544 | -6.25682 | 227 ft | 13 kts | 45° |
| 2026-05-06 20:33 | 53.42598 | -6.25590 | 227 ft | 9 kts | 45° |
| 2026-05-06 20:33 | 53.42605 | -6.25578 | 227 ft | 0 kts | 45° |
| 2026-05-06 20:33 | 53.42606 | -6.25576 | 227 ft | 1 kts | 45° |
| 2026-05-06 20:34 | 53.42610 | -6.25570 | 226 ft | 1 kts | 45° |
| 2026-05-06 20:34 | 53.42639 | -6.25521 | 225 ft | 16 kts | 45° |
| 2026-05-06 20:34 | 53.42726 | -6.25372 | 226 ft | 8 kts | 46° |
| 2026-05-06 20:34 | 53.42755 | -6.25323 | 227 ft | 3 kts | 46° |
| 2026-05-06 20:35 | 53.42777 | -6.25284 | 227 ft | 7 kts | 45° |
| 2026-05-06 20:35 | 53.42803 | -6.25188 | 227 ft | 10 kts | 94° |
| 2026-05-06 20:35 | 53.42785 | -6.25063 | 227 ft | 11 kts | 121° |
| 2026-05-06 20:35 | 53.42723 | -6.24980 | 229 ft | 12 kts | 149° |
| 2026-05-06 20:36 | 53.42716 | -6.24973 | 228 ft | 1 kts | 148° |
| 2026-05-06 20:36 | 53.42707 | -6.24959 | 227 ft | 2 kts | 121° |
| 2026-05-06 20:36 | 53.42711 | -6.24927 | 227 ft | 4 kts | 59° |
| 2026-05-06 20:36 | 53.42744 | -6.24875 | 227 ft | 8 kts | 42° |
| 2026-05-06 20:37 | 53.42747 | -6.24871 | 227 ft | 0 kts | 42° |